createdAt,value
2022-09-28T00:02:19.446Z,7.82
2022-09-28T00:04:48.342Z,7.82
2022-09-28T00:07:15.783Z,7.71
2022-09-28T00:09:43.928Z,7.92
2022-09-28T00:12:11.820Z,8.00
2022-09-28T00:14:40.518Z,8.30
2022-09-28T00:17:08.268Z,8.24
2022-09-28T00:19:35.810Z,8.31
2022-09-28T00:22:04.602Z,8.70
2022-09-28T00:24:32.487Z,8.75
2022-09-28T00:27:02.469Z,8.44
2022-09-28T00:29:32.080Z,8.76
2022-09-28T00:32:02.475Z,8.53
2022-09-28T00:34:32.345Z,8.78
2022-09-28T00:37:00.576Z,8.36
2022-09-28T00:39:31.549Z,8.64
2022-09-28T00:42:00.077Z,8.77
2022-09-28T00:44:41.096Z,8.62
2022-09-28T00:47:20.697Z,8.62
2022-09-28T00:49:54.478Z,8.37
2022-09-28T00:52:28.125Z,8.54
2022-09-28T00:55:01.318Z,8.26
2022-09-28T00:57:30.279Z,8.48
2022-09-28T00:59:59.087Z,8.56
2022-09-28T01:02:26.631Z,8.78
2022-09-28T01:04:55.489Z,8.68
2022-09-28T01:07:23.575Z,8.65
2022-09-28T01:09:52.301Z,9.04
2022-09-28T01:12:21.219Z,9.19
2022-09-28T01:14:50.125Z,9.01
2022-09-28T01:17:24.424Z,9.16
2022-09-28T01:20:07.315Z,9.28
2022-09-28T01:23:09.332Z,9.35
2022-09-28T01:25:42.150Z,9.31
2022-09-28T01:28:15.196Z,9.42
2022-09-28T01:30:53.349Z,9.26
2022-09-28T01:33:25.037Z,9.09
2022-09-28T01:35:56.862Z,8.80
2022-09-28T01:38:30.123Z,8.97
2022-09-28T01:40:59.281Z,9.00
2022-09-28T01:43:29.582Z,9.18
2022-09-28T01:46:01.875Z,9.09
2022-09-28T01:48:34.150Z,9.25
2022-09-28T01:51:05.588Z,9.16
2022-09-28T01:53:38.226Z,9.57
2022-09-28T01:56:09.908Z,9.49
2022-09-28T01:58:44.506Z,9.81
2022-09-28T02:01:23.139Z,9.90
2022-09-28T02:03:57.885Z,9.88
2022-09-28T02:06:31.890Z,9.89
2022-09-28T02:09:04.360Z,10.04
2022-09-28T02:11:33.291Z,10.00
2022-09-28T02:14:06.192Z,9.73
2022-09-28T02:16:38.598Z,9.63
2022-09-28T02:19:08.273Z,9.69
2022-09-28T02:21:42.679Z,9.63
2022-09-28T02:24:20.647Z,9.23
2022-09-28T02:26:50.823Z,9.27
2022-09-28T02:29:19.702Z,9.26
2022-09-28T02:31:47.332Z,9.09
2022-09-28T02:34:14.835Z,9.16
2022-09-28T02:36:44.819Z,9.04
2022-09-28T02:39:14.875Z,9.03
2022-09-28T02:41:52.815Z,9.22
2022-09-28T02:44:37.320Z,9.21
2022-09-28T02:47:17.172Z,9.17
2022-09-28T02:49:55.707Z,9.07
2022-09-28T02:52:49.964Z,9.06
2022-09-28T02:55:34.740Z,9.00
2022-09-28T02:58:16.460Z,8.88
2022-09-28T03:00:53.282Z,9.06
2022-09-28T03:03:26.946Z,8.98
2022-09-28T03:06:01.486Z,9.12
2022-09-28T03:08:33.433Z,9.16
2022-09-28T03:11:04.939Z,9.09
2022-09-28T03:13:34.412Z,9.19
2022-09-28T03:16:14.252Z,9.12
2022-09-28T03:18:42.077Z,9.19
2022-09-28T03:21:12.045Z,9.17
2022-09-28T03:23:39.762Z,9.22
2022-09-28T03:26:08.676Z,9.21
2022-09-28T03:28:36.638Z,9.37
2022-09-28T03:31:04.298Z,9.22
2022-09-28T03:33:33.376Z,9.17
2022-09-28T03:36:01.031Z,9.45
2022-09-28T03:38:28.525Z,9.28
2022-09-28T03:40:57.270Z,9.38
2022-09-28T03:43:26.071Z,9.34
2022-09-28T03:45:54.901Z,9.30
2022-09-28T03:48:27.616Z,9.34
2022-09-28T03:51:01.136Z,9.24
2022-09-28T03:53:29.712Z,9.33
2022-09-28T03:56:02.594Z,9.14
2022-09-28T03:58:30.025Z,9.16
2022-09-28T04:01:02.814Z,9.16
2022-09-28T04:03:30.343Z,9.15
2022-09-28T04:05:59.411Z,9.14
2022-09-28T04:08:26.935Z,9.05
2022-09-28T04:10:57.343Z,9.15
2022-09-28T04:13:25.077Z,9.04
2022-09-28T04:15:56.927Z,9.01
2022-09-28T04:18:25.003Z,9.24
2022-09-28T04:21:03.450Z,9.46
2022-09-28T04:23:31.111Z,9.56
2022-09-28T04:25:58.682Z,9.69
2022-09-28T04:28:44.104Z,9.56
2022-09-28T04:31:12.863Z,9.65
2022-09-28T04:33:40.338Z,9.48
2022-09-28T04:36:09.448Z,9.85
2022-09-28T04:38:52.309Z,9.86
2022-09-28T04:41:22.326Z,9.92
2022-09-28T04:43:50.305Z,10.15
2022-09-28T04:46:17.999Z,10.03
2022-09-28T04:48:45.612Z,9.81
2022-09-28T04:51:14.416Z,9.82
2022-09-28T04:53:41.942Z,9.52
2022-09-28T04:56:12.464Z,9.60
2022-09-28T04:58:40.841Z,9.59
2022-09-28T05:01:11.652Z,9.82
2022-09-28T05:03:39.159Z,10.02
2022-09-28T05:06:07.625Z,10.02
2022-09-28T05:08:36.847Z,9.87
2022-09-28T05:11:06.269Z,10.10
2022-09-28T05:13:35.625Z,10.01
2022-09-28T05:16:05.619Z,10.01
2022-09-28T05:18:33.352Z,9.95
2022-09-28T05:21:01.318Z,10.01
2022-09-28T05:23:28.819Z,9.83
2022-09-28T05:25:57.800Z,9.49
2022-09-28T05:28:28.502Z,9.68
2022-09-28T05:30:59.494Z,9.82
2022-09-28T05:33:27.000Z,9.65
2022-09-28T05:35:57.875Z,9.94
2022-09-28T05:38:28.371Z,10.29
2022-09-28T05:40:55.950Z,10.35
2022-09-28T05:43:24.868Z,10.88
2022-09-28T05:45:55.706Z,10.54
2022-09-28T05:48:23.550Z,10.64
2022-09-28T05:50:51.655Z,10.21
2022-09-28T05:53:19.418Z,10.67
2022-09-28T05:55:46.984Z,10.71
2022-09-28T05:58:14.496Z,10.60
2022-09-28T06:00:44.039Z,10.80
2022-09-28T06:03:13.939Z,10.58
2022-09-28T06:05:41.850Z,10.65
2022-09-28T06:08:11.541Z,10.92
2022-09-28T06:10:39.474Z,11.10
2022-09-28T06:13:07.419Z,10.45
2022-09-28T06:15:37.073Z,10.44
2022-09-28T06:18:07.544Z,10.62
2022-09-28T06:20:36.791Z,10.70
2022-09-28T06:23:04.637Z,10.68
2022-09-28T06:25:32.877Z,10.80
2022-09-28T06:28:02.013Z,10.41
2022-09-28T06:30:31.731Z,10.77
2022-09-28T06:33:00.785Z,10.97
2022-09-28T06:35:31.262Z,10.84
2022-09-28T06:37:59.214Z,10.83
2022-09-28T06:40:27.637Z,10.65
2022-09-28T06:42:59.667Z,10.55
2022-09-28T06:45:29.885Z,10.63
2022-09-28T06:47:58.692Z,10.69
2022-09-28T06:50:26.595Z,10.62
2022-09-28T06:52:57.087Z,10.72
2022-09-28T06:55:24.712Z,10.66
2022-09-28T06:57:59.380Z,10.30
2022-09-28T07:00:27.745Z,10.14
2022-09-28T07:02:55.252Z,10.08
2022-09-28T07:05:26.635Z,10.07
2022-09-28T07:07:56.411Z,9.87
2022-09-28T07:10:24.514Z,10.14
2022-09-28T07:12:52.442Z,10.04
2022-09-28T07:15:20.137Z,9.80
2022-09-28T07:18:00.550Z,9.87
2022-09-28T07:20:30.488Z,10.32
2022-09-28T07:23:12.194Z,10.00
2022-09-28T07:25:45.541Z,9.82
2022-09-28T07:28:13.227Z,9.69
2022-09-28T07:30:42.225Z,9.48
2022-09-28T07:33:14.314Z,9.59
2022-09-28T07:35:42.913Z,9.79
2022-09-28T07:38:13.159Z,10.39
2022-09-28T07:40:58.186Z,10.76
2022-09-28T07:43:25.847Z,10.78
2022-09-28T07:45:54.890Z,10.95
2022-09-28T07:48:23.836Z,10.69
2022-09-28T07:50:52.285Z,10.47
2022-09-28T07:53:22.299Z,10.48
2022-09-28T07:55:52.924Z,10.72
2022-09-28T07:58:20.787Z,10.84
2022-09-28T08:00:49.233Z,11.27
2022-09-28T08:03:17.420Z,11.16
2022-09-28T08:05:45.653Z,11.29
2022-09-28T08:08:13.350Z,11.28
2022-09-28T08:10:46.526Z,11.17
2022-09-28T08:13:16.268Z,11.08
2022-09-28T08:15:43.781Z,11.04
2022-09-28T08:18:11.340Z,11.30
2022-09-28T08:20:56.608Z,11.08
2022-09-28T08:23:24.516Z,11.05
2022-09-28T08:25:53.857Z,11.44
2022-09-28T08:28:23.119Z,11.16
2022-09-28T08:30:51.137Z,10.91
2022-09-28T08:33:21.153Z,11.03
2022-09-28T08:35:48.853Z,11.13
2022-09-28T08:38:16.336Z,11.26
2022-09-28T08:40:54.904Z,11.30
2022-09-28T08:44:03.506Z,10.97
2022-09-28T08:46:35.072Z,11.73
2022-09-28T08:49:26.379Z,11.39
2022-09-28T08:52:01.995Z,11.82
2022-09-28T08:54:37.848Z,11.45
2022-09-28T08:57:12.041Z,11.58
2022-09-28T08:59:51.432Z,11.48
2022-09-28T09:02:25.389Z,11.44
2022-09-28T09:04:53.713Z,11.99
2022-09-28T09:07:46.566Z,11.93
2022-09-28T09:10:28.606Z,11.91
2022-09-28T09:13:07.999Z,12.02
2022-09-28T09:15:47.033Z,12.37
2022-09-28T09:18:24.780Z,11.84
2022-09-28T09:20:56.697Z,11.75
2022-09-28T09:23:36.236Z,11.66
2022-09-28T09:26:12.812Z,11.54
2022-09-28T09:29:13.789Z,11.33
2022-09-28T09:31:59.558Z,11.38
2022-09-28T09:34:39.693Z,11.30
2022-09-28T09:37:21.996Z,11.38
2022-09-28T09:40:04.728Z,11.72
2022-09-28T09:42:48.951Z,12.29
2022-09-28T09:45:37.168Z,12.73
2022-09-28T09:48:11.444Z,12.89
2022-09-28T09:50:45.732Z,13.20
2022-09-28T09:53:22.498Z,13.25
2022-09-28T09:55:57.124Z,13.38
2022-09-28T09:58:30.598Z,13.68
2022-09-28T10:01:06.628Z,13.40
2022-09-28T10:03:40.027Z,13.73
2022-09-28T10:06:12.436Z,14.20
2022-09-28T10:08:44.625Z,13.05
2022-09-28T10:11:15.005Z,13.10
2022-09-28T10:13:42.819Z,13.26
2022-09-28T10:16:10.312Z,14.03
2022-09-28T10:18:39.871Z,13.38
2022-09-28T10:21:07.330Z,12.83
2022-09-28T10:23:38.665Z,12.98
2022-09-28T10:26:11.355Z,13.96
2022-09-28T10:28:46.273Z,14.18
2022-09-28T10:31:37.307Z,13.84
2022-09-28T10:34:07.883Z,13.69
2022-09-28T10:36:46.981Z,14.21
2022-09-28T10:39:27.367Z,13.95
2022-09-28T10:41:55.174Z,13.16
2022-09-28T10:44:24.089Z,13.54
2022-09-28T10:46:57.698Z,14.20
2022-09-28T10:49:26.945Z,14.67
2022-09-28T10:51:56.312Z,14.34
2022-09-28T10:54:25.517Z,13.53
2022-09-28T10:56:55.098Z,13.94
2022-09-28T10:59:38.084Z,14.69
2022-09-28T11:02:20.130Z,14.59
2022-09-28T11:04:55.017Z,14.13
2022-09-28T11:07:25.199Z,13.79
2022-09-28T11:09:55.369Z,14.44
2022-09-28T11:12:26.118Z,15.67
2022-09-28T11:14:58.947Z,16.02
2022-09-28T11:17:29.412Z,16.17
2022-09-28T11:19:59.958Z,15.38
2022-09-28T11:22:32.270Z,15.02
2022-09-28T11:25:31.252Z,14.39
2022-09-28T11:28:02.072Z,14.67
2022-09-28T11:30:33.797Z,14.75
2022-09-28T11:33:07.952Z,14.84
2022-09-28T11:35:47.056Z,14.71
2022-09-28T11:38:33.959Z,14.41
2022-09-28T11:41:23.464Z,15.03
2022-09-28T11:44:07.548Z,15.53
2022-09-28T11:46:42.782Z,16.07
2022-09-28T11:49:23.783Z,16.08
2022-09-28T11:51:54.745Z,16.22
2022-09-28T11:54:28.896Z,16.86
2022-09-28T11:57:01.068Z,15.46
2022-09-28T11:59:34.839Z,11.45
2022-09-28T12:02:11.718Z,11.22
2022-09-28T12:04:43.520Z,11.14
2022-09-28T12:07:17.892Z,10.77
2022-09-28T12:09:50.481Z,10.60
2022-09-28T12:12:25.210Z,10.94
2022-09-28T12:14:55.172Z,11.33
2022-09-28T12:17:26.962Z,11.41
2022-09-28T12:20:00.248Z,11.40
2022-09-28T12:22:33.818Z,11.25
2022-09-28T12:25:03.927Z,11.35
2022-09-28T12:27:38.849Z,11.62
2022-09-28T12:30:14.708Z,11.83
2022-09-28T12:32:47.708Z,11.69
2022-09-28T12:35:16.975Z,11.69
2022-09-28T12:38:08.682Z,12.39
2022-09-28T12:40:42.201Z,12.64
2022-09-28T12:43:41.981Z,12.53
2022-09-28T12:46:29.094Z,11.81
2022-09-28T12:52:05.928Z,11.98
2022-09-28T12:54:53.176Z,12.37
2022-09-28T12:57:39.080Z,12.33
2022-09-28T13:00:11.125Z,12.15
2022-09-28T13:02:59.708Z,12.76
2022-09-28T13:05:49.459Z,13.85
2022-09-28T13:08:28.078Z,13.75
2022-09-28T13:11:09.617Z,13.33
2022-09-28T13:13:47.112Z,14.15
2022-09-28T13:16:22.895Z,15.05
2022-09-28T13:18:57.977Z,14.13
2022-09-28T13:21:33.297Z,13.84
2022-09-28T13:24:20.943Z,13.92
2022-09-28T13:26:57.625Z,14.51
2022-09-28T13:29:27.046Z,15.40
2022-09-28T13:31:57.667Z,15.65
2022-09-28T13:34:28.046Z,15.90
2022-09-28T13:37:26.445Z,15.35
2022-09-28T13:39:56.367Z,14.31
2022-09-28T13:42:33.319Z,13.89
2022-09-28T13:45:17.555Z,13.88
2022-09-28T13:48:13.955Z,14.54
2022-09-28T13:51:19.631Z,14.86
2022-09-28T13:54:13.817Z,14.14
2022-09-28T13:56:51.667Z,13.85
2022-09-28T13:59:26.933Z,13.90
2022-09-28T14:02:06.926Z,14.22
2022-09-28T14:04:53.746Z,13.89
2022-09-28T14:07:24.599Z,14.12
2022-09-28T14:10:17.111Z,13.90
2022-09-28T14:12:47.740Z,14.86
2022-09-28T14:15:45.908Z,14.66
2022-09-28T14:18:23.703Z,14.47
2022-09-28T14:21:05.348Z,14.18
2022-09-28T14:23:50.554Z,14.14
2022-09-28T14:26:57.844Z,13.81
2022-09-28T14:29:29.164Z,13.76
2022-09-28T14:31:59.784Z,14.53
2022-09-28T14:34:34.266Z,13.81
2022-09-28T14:37:21.956Z,14.01
2022-09-28T14:40:07.841Z,14.27
2022-09-28T14:42:35.320Z,14.08
2022-09-28T14:45:35.781Z,14.28
2022-09-28T14:48:16.435Z,13.96
2022-09-28T14:50:43.890Z,14.27
2022-09-28T14:53:13.433Z,14.25
2022-09-28T14:55:50.109Z,14.37
2022-09-28T14:58:22.529Z,14.72
2022-09-28T15:01:02.055Z,15.78
2022-09-28T15:03:35.093Z,16.79
2022-09-28T15:06:02.726Z,16.50
2022-09-28T15:08:38.379Z,15.25
2022-09-28T15:11:06.950Z,13.51
2022-09-28T15:13:34.462Z,12.66
2022-09-28T15:16:07.200Z,12.16
2022-09-28T15:18:59.576Z,12.17
2022-09-28T15:21:34.481Z,12.28
2022-09-28T15:24:02.171Z,12.28
2022-09-28T15:26:31.686Z,12.17
2022-09-28T15:29:03.091Z,12.31
2022-09-28T15:31:35.735Z,12.54
2022-09-28T15:34:22.007Z,12.20
2022-09-28T15:36:49.897Z,12.43
2022-09-28T15:39:21.950Z,12.37
2022-09-28T15:41:51.589Z,12.77
2022-09-28T15:44:30.031Z,11.92
2022-09-28T15:47:14.671Z,11.81
2022-09-28T15:49:50.615Z,12.04
2022-09-28T15:52:38.236Z,11.68
2022-09-28T15:55:18.575Z,12.44
2022-09-28T15:57:46.149Z,12.91
2022-09-28T16:00:26.416Z,13.51
2022-09-28T16:03:01.996Z,13.79
2022-09-28T16:05:50.365Z,13.57
2022-09-28T16:08:24.492Z,13.20
2022-09-28T16:11:10.815Z,13.84
2022-09-28T16:13:46.629Z,13.09
2022-09-28T16:16:16.481Z,12.85
2022-09-28T16:18:48.999Z,12.09
2022-09-28T16:21:29.920Z,11.67
2022-09-28T16:23:58.081Z,11.91
2022-09-28T16:26:34.156Z,12.29
2022-09-28T16:29:06.796Z,12.27
2022-09-28T16:31:34.671Z,11.69
2022-09-28T16:34:11.833Z,11.08
2022-09-28T16:36:46.230Z,10.83
2022-09-28T16:39:14.186Z,10.79
2022-09-28T16:41:44.665Z,10.75
2022-09-28T16:44:18.682Z,10.85
2022-09-28T16:46:46.777Z,10.97
2022-09-28T16:49:18.663Z,11.19
2022-09-28T16:51:48.635Z,11.69
2022-09-28T16:54:36.904Z,11.20
2022-09-28T16:57:06.231Z,10.83
2022-09-28T16:59:33.867Z,10.96
2022-09-28T17:02:01.452Z,11.37
2022-09-28T17:04:29.703Z,12.36
2022-09-28T17:06:58.741Z,12.46
2022-09-28T17:09:26.166Z,12.42
2022-09-28T17:11:56.936Z,12.10
2022-09-28T17:14:25.212Z,11.60
2022-09-28T17:17:12.661Z,11.63
2022-09-28T17:19:41.367Z,12.22
2022-09-28T17:22:10.722Z,12.63
2022-09-28T17:24:38.415Z,12.71
2022-09-28T17:27:06.867Z,12.65
2022-09-28T17:29:34.379Z,12.53
2022-09-28T17:32:02.083Z,12.51
2022-09-28T17:34:29.542Z,12.44
2022-09-28T17:36:56.996Z,12.33
2022-09-28T17:39:25.935Z,12.18
2022-09-28T17:41:53.438Z,12.06
2022-09-28T17:44:21.224Z,11.59
2022-09-28T17:46:50.985Z,10.90
2022-09-28T17:49:18.629Z,11.07
2022-09-28T17:51:46.129Z,11.11
2022-09-28T17:54:16.637Z,11.29
2022-09-28T17:56:46.064Z,11.37
2022-09-28T17:59:14.967Z,11.34
2022-09-28T18:01:42.887Z,11.36
2022-09-28T18:04:33.190Z,11.51
2022-09-28T18:07:00.992Z,11.91
2022-09-28T18:09:28.528Z,12.04
2022-09-28T18:12:00.771Z,12.27
2022-09-28T18:14:28.371Z,12.32
2022-09-28T18:16:55.874Z,12.14
2022-09-28T18:19:23.420Z,12.06
2022-09-28T18:21:51.120Z,12.06
2022-09-28T18:24:18.960Z,11.94
2022-09-28T18:26:46.477Z,11.85
2022-09-28T18:29:17.500Z,11.79
2022-09-28T18:31:44.983Z,11.72
2022-09-28T18:34:13.524Z,11.61
2022-09-28T18:36:41.069Z,11.46
2022-09-28T18:39:08.565Z,11.40
2022-09-28T18:41:36.180Z,11.25
2022-09-28T18:44:03.697Z,11.16
2022-09-28T18:46:34.593Z,11.00
2022-09-28T18:49:02.103Z,11.10
2022-09-28T18:51:29.967Z,11.06
2022-09-28T18:53:57.609Z,11.04
2022-09-28T18:56:25.531Z,11.09
2022-09-28T18:58:53.172Z,11.02
2022-09-28T19:01:30.825Z,11.01
2022-09-28T19:04:01.358Z,10.96
2022-09-28T19:06:29.714Z,10.97
2022-09-28T19:08:57.678Z,10.98
2022-09-28T19:11:26.267Z,11.01
2022-09-28T19:13:54.569Z,10.96
2022-09-28T19:16:24.294Z,10.94
2022-09-28T19:18:53.412Z,10.95
2022-09-28T19:21:23.661Z,10.94
2022-09-28T19:23:52.000Z,10.87
2022-09-28T19:26:22.362Z,10.96
2022-09-28T19:28:50.662Z,11.06
2022-09-28T19:31:18.953Z,11.05
2022-09-28T19:33:47.091Z,10.93
2022-09-28T19:36:17.674Z,10.99
2022-09-28T19:38:47.023Z,11.03
2022-09-28T19:41:39.487Z,11.05
2022-09-28T19:44:13.367Z,10.65
2022-09-28T19:46:41.562Z,10.52
2022-09-28T19:49:11.247Z,10.75
2022-09-28T19:51:51.487Z,10.55
2022-09-28T19:54:36.205Z,10.73
2022-09-28T19:57:07.327Z,10.66
2022-09-28T19:59:35.525Z,10.64
2022-09-28T20:02:03.148Z,10.74
2022-09-28T20:04:30.951Z,10.49
2022-09-28T20:06:58.431Z,10.70
2022-09-28T20:09:26.047Z,10.63
2022-09-28T20:11:55.272Z,10.58
2022-09-28T20:14:24.586Z,10.81
2022-09-28T20:16:54.148Z,10.92
2022-09-28T20:19:23.146Z,10.67
2022-09-28T20:21:51.079Z,10.83
2022-09-28T20:24:18.756Z,11.02
2022-09-28T20:26:46.657Z,10.85
2022-09-28T20:29:15.502Z,10.95
2022-09-28T20:31:43.142Z,11.25
2022-09-28T20:34:10.858Z,11.12
2022-09-28T20:36:38.810Z,10.72
2022-09-28T20:39:06.335Z,10.93
2022-09-28T20:41:34.654Z,11.06
2022-09-28T20:44:05.604Z,10.91
2022-09-28T20:46:35.239Z,10.50
2022-09-28T20:49:03.348Z,10.40
2022-09-28T20:51:31.048Z,10.30
2022-09-28T20:53:59.754Z,10.45
2022-09-28T20:56:28.590Z,10.41
2022-09-28T20:58:56.905Z,10.33
2022-09-28T21:01:26.356Z,9.97
2022-09-28T21:03:56.831Z,9.87
2022-09-28T21:06:26.358Z,9.90
2022-09-28T21:08:54.126Z,9.82
2022-09-28T21:11:23.406Z,9.80
2022-09-28T21:13:54.742Z,9.75
2022-09-28T21:16:22.386Z,10.03
2022-09-28T21:18:49.949Z,9.97
2022-09-28T21:21:20.633Z,9.79
2022-09-28T21:23:48.876Z,9.82
2022-09-28T21:26:24.620Z,10.02
2022-09-28T21:28:53.826Z,10.08
2022-09-28T21:31:26.217Z,10.38
2022-09-28T21:33:56.235Z,10.78
2022-09-28T21:36:25.749Z,10.38
2022-09-28T21:38:54.140Z,9.81
2022-09-28T21:41:21.722Z,9.72
2022-09-28T21:43:49.294Z,9.71
2022-09-28T21:46:17.964Z,9.98
2022-09-28T21:48:45.643Z,10.19
2022-09-28T21:51:15.358Z,10.24
2022-09-28T21:53:45.021Z,10.08
2022-09-28T21:56:13.668Z,10.03
2022-09-28T21:58:41.531Z,9.89
2022-09-28T22:01:12.991Z,9.78
2022-09-28T22:03:40.629Z,9.74
2022-09-28T22:06:09.055Z,9.76
2022-09-28T22:08:37.614Z,9.91
2022-09-28T22:11:08.647Z,9.99
2022-09-28T22:13:37.721Z,10.12
2022-09-28T22:16:05.361Z,10.41
2022-09-28T22:18:33.955Z,10.51
2022-09-28T22:21:02.869Z,10.45
2022-09-28T22:23:31.173Z,10.42
2022-09-28T22:26:00.348Z,10.24
2022-09-28T22:28:29.886Z,10.51
2022-09-28T22:30:57.956Z,10.27
2022-09-28T22:33:26.755Z,10.24
2022-09-28T22:35:55.210Z,10.42
2022-09-28T22:38:25.019Z,10.37
2022-09-28T22:40:54.485Z,10.30
2022-09-28T22:43:23.293Z,10.47
2022-09-28T22:46:00.909Z,10.35
2022-09-28T22:48:28.487Z,10.49
2022-09-28T22:50:56.105Z,10.48
2022-09-28T22:53:23.863Z,10.43
2022-09-28T22:55:51.408Z,10.38
2022-09-28T22:58:18.989Z,10.41
2022-09-28T23:00:46.550Z,10.17
2022-09-28T23:03:15.714Z,10.32
2022-09-28T23:05:52.036Z,10.45
2022-09-28T23:08:19.588Z,10.61
2022-09-28T23:10:47.175Z,10.64
2022-09-28T23:13:15.148Z,10.62
2022-09-28T23:15:42.943Z,10.45
2022-09-28T23:18:10.888Z,10.34
2022-09-28T23:20:39.839Z,10.27
2022-09-28T23:23:07.362Z,10.42
2022-09-28T23:25:34.908Z,10.57
2022-09-28T23:28:02.618Z,10.62
2022-09-28T23:30:30.428Z,10.66
2022-09-28T23:32:58.058Z,10.48
2022-09-28T23:35:25.636Z,10.46
2022-09-28T23:37:54.521Z,10.41
2022-09-28T23:40:22.067Z,10.33
2022-09-28T23:42:49.643Z,10.29
2022-09-28T23:45:17.342Z,10.21
2022-09-28T23:47:44.866Z,10.20
2022-09-28T23:50:12.371Z,10.20
2022-09-28T23:52:39.882Z,10.20
2022-09-28T23:55:09.437Z,10.19
2022-09-28T23:57:36.938Z,10.15
